< < Back
Terminal Aerodrome Forecast


Current Version              Previous Versions:   1  2  3  4  5  6  7  8  9  

Terminal Aerodrome Forecast

422
FTUS42 KGSP 011138
TAFGSP
TAF
KGSP 011138Z 0112/0212 VRB03KT P6SM VCSH SCT025 BKN045 OVC090
     FM011300 17007KT 6SM BR VCSH OVC008
     FM011500 19010KT P6SM OVC015
      TEMPO 0117/0121 4SM -TSRA OVC007CB
     FM012100 21011KT P6SM BKN035
     FM020000 23013KT P6SM BKN045=



Latest METAR

567
SAUS70 KWBC 011300 RRT
MTRGSP
METAR KGSP 011253Z 01003KT 10SM -RA OVC016 17/16 A3004 RMK AO2 LTG DSNT
SE RAB16E28B49 SLP165 P0006 T01720161


USA.gov is the U.S. government's official web portal to all federal, state and local government web resources and services.